createdAt,value
2023-03-06T08:04:28.312Z,991.44
2023-03-06T08:05:28.805Z,991.39
2023-03-06T08:06:30.836Z,991.38
2023-03-06T08:07:32.848Z,991.41
2023-03-06T08:08:34.877Z,991.41
2023-03-06T08:09:36.909Z,991.36
2023-03-06T08:10:38.932Z,991.36
2023-03-06T08:11:40.958Z,991.38
2023-03-06T08:12:42.994Z,991.35
2023-03-06T08:13:45.014Z,991.37
2023-03-06T08:14:47.048Z,991.35
2023-03-06T08:15:49.074Z,991.37
2023-03-06T08:16:51.108Z,991.39
2023-03-06T08:17:53.121Z,991.37
2023-03-06T08:18:55.154Z,991.39
2023-03-06T08:19:57.221Z,991.38
2023-03-06T08:20:59.244Z,991.38
2023-03-06T08:22:01.278Z,991.37
2023-03-06T08:23:03.284Z,991.41
2023-03-06T08:24:06.731Z,991.42
2023-03-06T08:25:07.336Z,991.42
2023-03-06T08:26:09.324Z,991.44
2023-03-06T08:27:11.348Z,991.45
2023-03-06T08:28:13.368Z,991.47
2023-03-06T08:29:15.399Z,991.47
2023-03-06T08:30:17.421Z,991.45
2023-03-06T08:31:19.465Z,991.44
2023-03-06T08:32:21.542Z,991.44
2023-03-06T08:33:23.534Z,991.47
2023-03-06T08:34:25.557Z,991.46
2023-03-06T08:35:27.622Z,991.47
2023-03-06T08:36:29.628Z,991.46
2023-03-06T08:37:31.659Z,991.47
2023-03-06T08:38:33.680Z,991.43
2023-03-06T08:39:35.702Z,991.45
2023-03-06T08:40:37.726Z,991.46
2023-03-06T08:41:39.753Z,991.46
2023-03-06T08:42:41.770Z,991.43
2023-03-06T08:43:43.795Z,991.42
2023-03-06T08:44:45.813Z,991.38
2023-03-06T08:45:47.922Z,991.40
2023-03-06T08:46:49.917Z,991.38
2023-03-06T08:47:51.949Z,991.37
2023-03-06T08:48:54.000Z,991.42
2023-03-06T08:49:56.034Z,991.40
2023-03-06T08:50:58.058Z,991.44
2023-03-06T08:52:00.135Z,991.40
2023-03-06T08:53:02.139Z,991.35
2023-03-06T08:54:04.143Z,991.33
2023-03-06T08:55:06.178Z,991.36
2023-03-06T08:56:08.188Z,991.43
2023-03-06T08:57:10.213Z,991.39
2023-03-06T08:58:12.233Z,991.39
2023-03-06T08:59:14.289Z,991.38
2023-03-06T09:00:16.346Z,991.38
2023-03-06T09:01:18.397Z,991.33
2023-03-06T09:02:20.394Z,991.35
2023-03-06T09:03:22.417Z,991.38
2023-03-06T09:04:24.446Z,991.36
2023-03-06T09:05:26.518Z,991.40
2023-03-06T09:06:28.581Z,991.34
2023-03-06T09:07:30.619Z,991.35
2023-03-06T09:08:32.636Z,991.40
2023-03-06T09:09:34.665Z,991.34
2023-03-06T09:10:36.762Z,991.36
2023-03-06T09:11:38.778Z,991.35
2023-03-06T09:12:49.741Z,991.36
2023-03-06T09:13:42.218Z,991.35
2023-03-06T09:14:44.252Z,991.32
2023-03-06T09:15:46.393Z,991.29
2023-03-06T09:16:48.499Z,991.28
2023-03-06T09:17:50.550Z,991.33
2023-03-06T09:18:52.535Z,991.31
2023-03-06T09:19:54.577Z,991.37
2023-03-06T09:20:56.585Z,991.40
2023-03-06T09:21:58.646Z,991.36
2023-03-06T09:23:00.674Z,991.39
2023-03-06T09:24:02.687Z,991.36
